Alvin, Wisconsin
Current Conditions -  °F | °C
As of 2:15 AM on Monday 22 Dec 2014 (Local Time) from KEGV Reporting Station
Haze Haze  
Wind Chill: 24°   Ceiling: 600
Heat Index: 32°   Visibility: 4mi
Dew Point: 32°   Wind: 10mph
Humidity: 100%   Direction: 170°S
Pressure: 29.82"   Gusts: NA
Location:  45.9186°N, 88.7601°W
Report Text: KEGV 220815Z AUTO 17009KT 4SM BR OVC006 00/00 A2982 RMK AO2 T00000000
Loading
Personal Weather Stations






























Interactive Weather Map New forecast layout! Learn more

10-Day Weather Forecast

Advertisements
Track Severe Weather on mobile